Latest Weather Observations for Coober Pedy Airport

IDS60801

Issued at 10:01 pm CST Wednesday 29 June 2016 (issued every 30 minutes, with the page automatically refreshed every 10 minutes)

About weather observations | Map of weather stations | Latest weather observations for SA | Other Formats
Station Details ID: 016090 Name: COOBER PEDY AIRPORT Lat: -29.03 Lon: 134.72 Height: 225.0 m
Data from the previous 72 hours. | See also: Recent months at Coober Pedy Airport
Date/Time
CST
Temp
°C
App
Temp
°C
Dew
Point
°C
Rel
Hum
%
Delta-T
°C
Wind Press
QNH
hPa
Press
MSL
hPa
Rain since
9am
mm
Dir  Spd
km/h
Gust
km/h
Spd
kts
Gust
kts
29/10:00pm 10.8 6.0 5.8 71 2.3 NNE 20 22 11 12 1019.4 1019.4 0.0
29/09:30pm 10.7 6.1 5.7 71 2.3 NNE 19 20 10 11 1019.5 1019.5 0.0
29/09:00pm 11.2 6.6 5.7 69 2.6 NNE 19 20 10 11 1019.6 1019.6 0.0
29/08:30pm 11.5 6.9 5.6 67 2.8 NNE 19 20 10 11 1019.7 1019.7 0.0
29/08:00pm 11.9 7.3 5.8 66 2.9 NNE 19 20 10 11 1019.6 1019.6 0.0
29/07:30pm 12.3 7.7 5.7 64 3.1 NNE 19 20 10 11 1019.2 1019.2 0.0
29/07:00pm 12.5 7.9 5.7 63 3.2 NNE 19 20 10 11 1019.0 1019.0 0.0
29/06:30pm 13.4 9.2 5.6 59 3.7 NNE 17 20 9 11 1018.7 1018.7 0.0
29/06:00pm 14.4 9.6 5.5 55 4.2 NNE 20 24 11 13 1018.5 1018.5 0.0
29/05:30pm 15.7 10.8 5.0 49 5.1 NNE 20 24 11 13 1018.4 1018.4 0.0
29/05:00pm 16.6 10.8 4.6 45 5.7 N 24 30 13 16 1018.4 1018.4 0.0
29/04:30pm 17.0 11.2 4.3 43 6.0 N 24 28 13 15 1018.7 1018.7 0.0
29/04:00pm 17.2 11.9 4.9 44 5.9 N 22 28 12 15 1018.9 1018.9 0.0
29/03:30pm 16.9 11.1 4.6 44 5.9 N 24 30 13 16 1019.1 1019.1 0.0
29/03:00pm 16.9 10.4 4.9 45 5.8 N 28 35 15 19 1019.5 1019.5 0.0
29/02:30pm 16.8 10.3 4.5 44 5.9 N 28 33 15 18 1019.7 1019.7 0.0
29/02:00pm 16.4 9.5 4.8 46 5.6 N 30 39 16 21 1020.1 1020.1 0.0
29/01:30pm 15.6 8.3 4.6 48 5.2 N 32 41 17 22 1020.6 1020.6 0.0
29/01:00pm 15.0 6.8 4.7 50 4.9 N 37 48 20 26 1021.2 1021.2 0.0
29/12:30pm 14.5 5.9 4.8 52 4.6 N 39 46 21 25 1022.1 1022.1 0.0
29/12:00pm 14.0 6.5 6.1 59 3.8 N 35 43 19 23 1022.8 1022.8 0.0
29/11:30am 12.5 4.4 5.4 62 3.3 N 37 46 20 25 1023.5 1023.5 0.0
29/11:00am 11.9 3.5 5.5 65 3.0 NNE 39 48 21 26 1023.8 1023.8 0.0
29/10:30am 11.1 3.6 6.5 73 2.2 NNE 35 46 19 25 1024.1 1024.1 0.0
29/10:00am 9.7 2.1 5.9 77 1.8 NNE 35 43 19 23 1024.2 1024.2 0.0
29/09:30am 8.3 1.3 5.8 84 1.1 NNE 32 37 17 20 1024.4 1024.4 0.0
29/09:00am 6.6 0.1 4.9 89 0.7 NNE 28 35 15 19 1024.4 1024.4 0.0
29/08:30am 5.3 -0.8 4.6 95 0.3 NE 26 32 14 17 1024.2 1024.2 0.0
29/08:00am 4.6 -1.6 4.2 97 0.2 NNE 26 30 14 16 1023.9 1023.9 0.0
29/07:30am 4.2 -1.7 3.8 97 0.2 NNE 24 28 13 15 1023.9 1023.9 0.0
29/07:00am 4.4 -1.9 3.8 96 0.3 NNE 26 30 14 16 1023.9 1023.9 0.0
29/06:30am 4.9 -1.3 4.3 96 0.3 NNE 26 30 14 16 1023.9 1023.9 0.0
29/06:00am 4.9 -0.9 4.5 97 0.2 NNE 24 28 13 15 1023.8 1023.8 0.0
29/05:30am 4.9 -0.6 4.2 95 0.3 NNE 22 28 12 15 1023.9 1023.9 0.0
29/05:00am 5.7 -0.8 4.8 94 0.4 NNE 28 35 15 19 1023.6 1023.6 0.0
29/04:30am 5.5 -0.6 4.9 96 0.3 NNE 26 32 14 17 1023.6 1023.6 0.0
29/04:00am 5.2 0.4 4.6 96 0.3 NNE 19 24 10 13 1024.3 1024.3 0.0
29/03:30am 5.4 1.0 4.7 95 0.3 NNE 17 20 9 11 1024.2 1024.2 0.0
29/03:00am 5.7 1.3 4.7 93 0.4 NNE 17 20 9 11 1024.6 1024.6 0.0
29/02:30am 5.9 0.9 4.7 92 0.5 NNE 20 24 11 13 1024.8 1024.8 0.0
29/02:00am 6.2 1.5 5.0 92 0.5 NNE 19 24 10 13 1024.8 1024.8 0.0
29/01:30am 6.3 1.9 4.8 90 0.7 NNE 17 20 9 11 1024.8 1024.8 0.0
29/01:00am 6.7 1.8 4.9 88 0.8 NNE 20 26 11 14 1024.7 1024.7 0.0
29/12:30am 7.4 1.8 5.2 86 1.0 NE 24 32 13 17 1024.6 1024.6 0.0
29/12:00am 7.5 1.9 5.3 86 1.0 NE 24 30 13 16 1024.5 1024.5 0.0
 
Date/Time
CST
Temp
°C
App
Temp
°C
Dew
Point
°C
Rel
Hum
%
Delta-T
°C
Wind Press
QNH
hPa
Press
MSL
hPa
Rain since
9am
mm
Dir  Spd
km/h
Gust
km/h
Spd
kts
Gust
kts
28/11:30pm 7.4 2.1 5.2 86 1.0 NE 22 28 12 15 1024.6 1024.6 0.0
28/11:00pm 8.1 2.0 5.0 81 1.4 NE 26 32 14 17 1024.4 1024.4 0.0
28/10:30pm 8.7 2.7 5.1 78 1.6 NE 26 32 14 17 1024.3 1024.3 0.0
28/10:00pm 9.0 3.4 5.2 77 1.7 NE 24 30 13 16 1024.5 1024.5 0.0
28/09:30pm 9.2 3.5 5.0 75 1.9 NE 24 28 13 15 1024.6 1024.6 0.0
28/09:00pm 9.5 4.2 5.1 74 2.0 NE 22 30 12 16 1024.6 1024.6 0.0
28/08:30pm 9.9 5.0 5.3 73 2.1 NE 20 24 11 13 1024.8 1024.8 0.0
28/08:00pm 10.7 5.8 5.3 69 2.5 NE 20 26 11 14 1025.0 1025.0 0.0
28/07:30pm 11.2 6.3 5.3 67 2.7 NNE 20 26 11 14 1024.9 1024.9 0.0
28/07:00pm 11.3 6.7 5.8 69 2.6 NE 19 22 10 12 1024.7 1024.7 0.0
28/06:30pm 12.0 7.8 5.9 66 2.9 NE 17 22 9 12 1024.6 1024.6 0.0
28/06:00pm 12.9 8.3 5.8 62 3.4 NNE 19 20 10 11 1024.4 1024.4 0.0
28/05:30pm 14.0 7.6 5.1 55 4.2 NNE 28 33 15 18 1024.3 1024.3 0.0
28/05:00pm 14.8 9.2 5.3 53 4.5 NNE 24 33 13 18 1024.2 1024.2 0.0
28/04:30pm 15.2 10.0 5.4 52 4.7 NNE 22 33 12 18 1024.3 1024.3 0.0
28/04:00pm 15.6 9.8 6.3 54 4.6 NNE 26 33 14 18 1024.5 1024.5 0.0
28/03:30pm 15.3 8.9 5.2 51 4.8 NNE 28 37 15 20 1024.5 1024.5 0.0
28/03:00pm 15.7 9.9 6.2 53 4.6 NNE 26 37 14 20 1024.7 1024.7 0.0
28/02:30pm 15.2 9.3 5.7 53 4.6 NNE 26 35 14 19 1024.9 1024.9 0.0
28/02:00pm 14.9 8.8 4.6 50 4.9 NNE 26 33 14 18 1025.4 1025.5 0.0
28/01:30pm 15.0 9.5 6.0 55 4.3 NNE 24 33 13 18 1025.8 1025.9 0.0
28/01:00pm 14.4 9.4 6.5 59 3.9 NNE 22 32 12 17 1026.5 1026.6 0.0
28/12:30pm 13.9 9.5 7.2 64 3.3 NE 20 30 11 16 1027.1 1027.1 0.0
28/12:00pm 13.4 9.6 7.6 68 2.9 NE 17 22 9 12 1027.8 1027.8 0.0
28/11:30am 12.4 8.5 7.3 71 2.5 NE 17 20 9 11 1028.1 1028.1 0.0
28/11:00am 11.7 8.2 7.2 74 2.2 NE 15 19 8 10 1028.4 1028.4 0.0
28/10:30am 11.3 7.8 7.0 75 2.1 NE 15 19 8 10 1028.4 1028.4 0.0
28/10:00am 10.7 7.4 6.3 74 2.1 NE 13 17 7 9 1028.6 1028.6 0.0
28/09:30am 9.9 6.9 5.9 76 1.8 NE 11 15 6 8 1028.4 1028.4 0.0
28/09:00am 8.7 5.0 4.7 76 1.8 NE 13 15 7 8 1028.0 1028.0 0.2
28/08:30am 7.4 4.5 4.5 82 1.3 NE 9 13 5 7 1027.8 1027.8 0.2
28/08:00am 5.6 1.7 3.3 85 1.0 ENE 13 13 7 7 1027.5 1027.5 0.2
28/07:30am 4.9 1.3 2.9 87 0.8 ENE 11 13 6 7 1027.2 1027.2 0.2
28/07:00am 5.0 1.4 2.7 85 0.9 ENE 11 13 6 7 1026.6 1026.7 0.2
28/06:30am 5.5 1.2 3.3 86 0.9 ENE 15 15 8 8 1026.2 1026.3 0.2
28/06:00am 4.8 1.6 2.8 87 0.8 ENE 9 11 5 6 1025.8 1025.9 0.2
28/05:30am 5.9 2.7 3.2 83 1.1 ENE 9 11 5 6 1025.7 1025.8 0.2
28/05:00am 5.7 2.9 3.4 85 1.0 ENE 7 9 4 5 1025.6 1025.7 0.2
28/04:30am 5.6 2.1 3.3 85 1.0 ENE 11 13 6 7 1025.5 1025.6 0.2
28/04:00am 5.0 1.4 2.9 86 0.9 NE 11 13 6 7 1025.5 1025.6 0.2
28/03:30am 6.7 3.5 3.0 77 1.6 ENE 9 9 5 5 1025.6 1025.7 0.2
28/03:00am 6.4 3.2 3.2 80 1.3 ENE 9 11 5 6 1025.5 1025.6 0.2
28/02:30am 7.0 3.9 3.6 79 1.5 NE 9 9 5 5 1025.5 1025.6 0.2
28/02:00am 6.3 3.1 3.1 80 1.4 E 9 11 5 6 1025.7 1025.8 0.2
28/01:30am 7.1 3.6 3.5 78 1.5 E 11 13 6 7 1025.4 1025.5 0.2
28/01:00am 7.5 3.7 3.9 78 1.6 ESE 13 15 7 8 1025.5 1025.6 0.2
28/12:30am 7.9 4.6 4.3 78 1.6 ESE 11 13 6 7 1025.5 1025.6 0.2
28/12:00am 8.2 4.9 4.8 79 1.5 ESE 11 13 6 7 1025.7 1025.8 0.2
 
Date/Time
CST
Temp
°C
App
Temp
°C
Dew
Point
°C
Rel
Hum
%
Delta-T
°C
Wind Press
QNH
hPa
Press
MSL
hPa
Rain since
9am
mm
Dir  Spd
km/h
Gust
km/h
Spd
kts
Gust
kts
27/11:30pm 8.1 4.9 4.9 80 1.4 ESE 11 13 6 7 1025.9 1026.0 0.2
27/11:00pm 8.6 4.6 5.0 78 1.6 ESE 15 17 8 9 1026.1 1026.2 0.2
27/10:30pm 9.0 6.2 5.2 77 1.7 SE 9 13 5 7 1026.2 1026.3 0.2
27/10:00pm 10.0 6.8 5.2 72 2.2 SE 11 11 6 6 1026.4 1026.5 0.2
27/09:30pm 9.3 6.5 5.3 76 1.8 SSE 9 11 5 6 1026.2 1026.3 0.2
27/09:00pm 10.3 7.6 5.5 72 2.2 SSE 9 11 5 6 1026.3 1026.4 0.2
27/08:30pm 9.7 8.4 5.9 77 1.8 S 2 6 1 3 1026.2 1026.3 0.2
27/08:00pm 10.3 8.1 6.3 76 1.9 S 7 9 4 5 1025.9 1026.0 0.2
27/07:30pm 10.1 7.9 6.4 78 1.7 SSW 7 9 4 5 1025.7 1025.8 0.2
27/07:00pm 10.9 9.0 6.5 74 2.1 S 6 7 3 4 1025.5 1025.6 0.2
27/06:30pm 11.4 8.9 6.5 72 2.3 S 9 11 5 6 1025.1 1025.2 0.2
27/06:00pm 12.2 9.6 6.3 67 2.8 S 9 9 5 5 1024.8 1024.8 0.2
27/05:30pm 13.3 10.5 5.0 57 3.9 S 9 11 5 6 1024.5 1024.5 0.2
27/05:00pm 14.3 10.1 3.7 49 4.9 SSE 15 19 8 10 1024.3 1024.3 0.2
27/04:30pm 14.4 9.8 3.5 48 5.0 S 17 20 9 11 1024.1 1024.1 0.2
27/04:00pm 14.7 10.6 4.1 49 4.9 S 15 20 8 11 1023.9 1023.9 0.2
27/03:30pm 14.7 10.1 3.8 48 5.0 S 17 24 9 13 1023.8 1023.8 0.2
27/03:00pm 14.4 9.4 3.5 48 5.0 S 19 30 10 16 1023.5 1023.5 0.0
27/02:30pm 14.5 9.7 4.5 51 4.7 SSW 19 30 10 16 1023.7 1023.7 0.0
27/02:00pm 14.2 8.7 4.2 51 4.6 S 22 30 12 16 1023.8 1023.8 0.0
27/01:30pm 14.2 9.2 4.8 53 4.4 SSW 20 32 11 17 1024.0 1024.0 0.0
27/01:00pm 14.0 8.9 5.9 58 3.9 SSW 22 33 12 18 1024.2 1024.2 0.0
27/12:30pm 13.6 8.3 5.0 56 4.0 SSW 22 28 12 15 1024.8 1024.8 0.0
27/12:00pm 13.2 8.1 5.9 61 3.5 SSW 22 28 12 15 1024.9 1024.9 0.0
27/11:30am 13.0 7.8 7.2 68 2.8 SSW 24 32 13 17 1025.3 1025.4 0.0
27/11:00am 12.3 8.0 7.8 74 2.2 SSW 20 26 11 14 1025.5 1025.6 0.0
27/10:30am 11.2 7.2 8.2 82 1.5 SW 19 22 10 12 1025.7 1025.8 0.0
27/10:00am 10.1 6.1 8.4 89 0.8 SW 19 22 10 12 1025.6 1025.7 0.0
27/09:30am 9.2 5.2 8.4 95 0.4 SW 19 24 10 13 1025.3 1025.4 0.0
27/09:00am 8.1 4.0 7.7 97 0.2 WSW 19 24 10 13 1025.0 1025.0 1.0
27/08:30am 7.3 3.4 6.9 97 0.2 WSW 17 20 9 11 1024.8 1024.8 1.0
27/08:00am 6.6 2.9 6.2 97 0.2 WSW 15 19 8 10 1024.6 1024.6 1.0
27/07:30am 6.3 2.5 5.9 97 0.2 WSW 15 17 8 9 1024.2 1024.2 1.0
27/07:00am 6.5 2.8 6.1 97 0.2 WSW 15 19 8 10 1023.9 1023.9 1.0
27/06:30am 6.9 2.9 6.5 97 0.2 WSW 17 20 9 11 1023.5 1023.5 1.0
27/06:00am 7.3 3.4 6.9 97 0.2 SW 17 20 9 11 1023.1 1023.1 1.0
27/05:30am 7.4 3.5 7.0 97 0.2 SW 17 19 9 10 1022.8 1022.8 1.0
27/05:00am 8.0 3.8 7.6 97 0.2 SW 19 22 10 12 1022.5 1022.5 1.0
27/04:30am 7.9 4.1 7.5 97 0.2 SW 17 20 9 11 1022.1 1022.1 1.0
27/04:00am 8.0 4.2 7.6 97 0.2 SW 17 19 9 10 1021.8 1021.9 1.0
27/03:30am 8.1 5.1 7.7 97 0.2 SW 13 15 7 8 1021.5 1021.6 1.0
27/03:00am 8.7 5.0 7.9 95 0.4 SW 17 19 9 10 1021.5 1021.6 1.0
27/02:30am 9.4 5.7 8.0 91 0.7 SW 17 20 9 11 1021.5 1021.6 1.0
27/02:00am 9.3 6.0 7.9 91 0.7 WSW 15 19 8 10 1021.6 1021.7 1.0
27/01:30am 9.2 6.2 7.5 89 0.8 W 13 17 7 9 1021.4 1021.5 1.0
27/01:00am 9.6 6.9 7.4 86 1.1 WNW 11 13 6 7 1021.3 1021.4 1.0
27/12:30am 9.7 7.2 8.0 89 0.8 WNW 11 13 6 7 1021.2 1021.2 1.0
27/12:00am 9.8 7.3 8.1 89 0.8 NW 11 13 6 7 1021.0 1021.0 1.0
 
Date/Time
CST
Temp
°C
App
Temp
°C
Dew
Point
°C
Rel
Hum
%
Delta-T
°C
Wind Press
QNH
hPa
Press
MSL
hPa
Rain since
9am
mm
Dir  Spd
km/h
Gust
km/h
Spd
kts
Gust
kts
26/11:30pm 9.7 7.5 8.0 89 0.8 NW 9 11 5 6 1020.8 1020.8 1.0
26/11:00pm 9.7 7.2 8.0 89 0.8 NW 11 11 6 6 1020.8 1020.8 1.0
26/10:30pm 9.6 7.5 8.2 91 0.7 NW 9 13 5 7 1020.8 1020.8 1.0

Other Formats:

Comma delimited format used in spreadsheet applications
http://www.bom.gov.au/fwo/IDS60801/IDS60801.95458.axf

JavaScript Object Notation format (JSON) in row-major order
http://www.bom.gov.au/fwo/IDS60801/IDS60801.95458.json